Time;durP1;ratioP1;P1;durP2;ratioP2;P2;SDS_P1;SDS_P2;PMS_P1;PMS_P2;Temp;Humidity;BMP_temperature;BMP_pressure;BME280_temperature;BME280_humidity;BME280_pressure;Samples;Min_cycle;Max_cycle;Signal;HPM_P1;HPM_P2
2023/06/05 00:02:26;;;;;;;6.97;5.10;;;;;;;18.16;63.20;96326.56;5028309;28;20408;-73
2023/06/05 00:04:54;;;;;;;7.70;5.10;;;;;;;18.17;63.08;96328.16;5028091;28;20049;-73
2023/06/05 00:07:20;;;;;;;6.60;5.53;;;;;;;18.16;63.64;96323.81;5029637;28;20052;-73
2023/06/05 00:09:47;;;;;;;7.22;5.25;;;;;;;18.18;63.84;96321.50;5029717;28;20046;-72
2023/06/05 00:12:13;;;;;;;9.43;5.15;;;;;;;18.15;64.09;96320.25;5027314;28;20440;-73
2023/06/05 00:14:40;;;;;;;7.53;4.97;;;;;;;18.17;63.79;96323.47;5010261;28;20049;-72
2023/06/05 00:17:09;;;;;;;7.10;5.03;;;;;;;18.18;63.21;96318.72;5023233;28;20076;-73
2023/06/05 00:19:35;;;;;;;7.60;5.38;;;;;;;18.17;63.00;96312.44;5025995;28;20045;-73
2023/06/05 00:22:03;;;;;;;8.32;5.40;;;;;;;18.16;62.99;96315.53;5027582;28;20393;-73
2023/06/05 00:24:30;;;;;;;6.15;4.70;;;;;;;18.16;63.41;96315.53;5027008;28;20049;-73
2023/06/05 00:26:56;;;;;;;7.45;5.05;;;;;;;18.13;63.44;96317.06;5024554;28;20052;-73
2023/06/05 00:29:23;;;;;;;7.38;5.38;;;;;;;18.12;63.41;96311.94;5028857;28;20048;-72
2023/06/05 00:31:49;;;;;;;7.60;5.70;;;;;;;18.10;63.30;96306.00;5029394;28;20497;-72
2023/06/05 00:34:16;;;;;;;9.38;6.40;;;;;;;18.02;63.20;96309.81;5029238;28;20049;-73
2023/06/05 00:36:42;;;;;;;7.07;5.18;;;;;;;18.03;63.09;96306.66;5023188;28;20041;-73
2023/06/05 00:39:10;;;;;;;9.80;6.00;;;;;;;17.93;63.29;96308.06;5025136;28;20496;-73
2023/06/05 00:41:37;;;;;;;9.55;6.13;;;;;;;17.89;63.32;96304.44;5027174;28;20057;-73
2023/06/05 00:44:04;;;;;;;10.60;6.43;;;;;;;17.93;63.18;96308.06;5030609;28;20444;-72
2023/06/05 00:46:30;;;;;;;7.90;5.43;;;;;;;17.98;63.32;96299.50;5024850;28;20046;-72
2023/06/05 00:48:57;;;;;;;8.02;5.75;;;;;;;17.91;63.50;96299.38;5030798;28;20042;-73
2023/06/05 00:51:23;;;;;;;8.45;5.45;;;;;;;17.95;63.69;96307.69;5030162;28;20084;-72
2023/06/05 00:53:51;;;;;;;12.85;6.70;;;;;;;17.88;63.79;96300.09;5034118;28;20056;-73
2023/06/05 00:56:20;;;;;;;10.25;5.45;;;;;;;17.74;63.79;96305.34;5027088;28;20045;-73
2023/06/05 00:58:48;;;;;;;9.65;6.00;;;;;;;17.72;64.19;96313.16;5029232;28;20046;-72
2023/06/05 01:01:15;;;;;;;8.20;5.93;;;;;;;17.75;63.87;96295.94;5028069;28;20049;-73
2023/06/05 01:03:44;;;;;;;9.50;5.97;;;;;;;17.79;64.42;96296.00;5029715;28;20053;-73
2023/06/05 01:06:11;;;;;;;8.07;5.47;;;;;;;17.82;64.47;96296.06;5028867;28;20042;-73
2023/06/05 01:08:39;;;;;;;6.90;5.80;;;;;;;17.81;64.40;96291.72;5033842;28;20046;-72
2023/06/05 01:11:11;;;;;;;9.80;6.30;;;;;;;17.69;64.38;96291.84;5027158;28;20042;-73
2023/06/05 01:13:47;;;;;;;8.88;6.10;;;;;;;17.51;64.46;96296.25;5036627;28;20055;-73
2023/06/05 01:16:14;;;;;;;10.60;5.72;;;;;;;17.39;65.34;96283.44;5025798;28;20063;-72
2023/06/05 01:18:45;;;;;;;8.90;6.18;;;;;;;17.30;65.47;96283.66;5030813;28;20041;-73
2023/06/05 01:21:14;;;;;;;8.73;5.90;;;;;;;17.46;65.56;96289.06;5030864;28;20038;-73
2023/06/05 01:23:44;;;;;;;9.57;6.03;;;;;;;17.46;65.15;96287.09;5028743;28;20041;-73
2023/06/05 01:26:18;;;;;;;7.45;5.68;;;;;;;17.61;65.04;96276.38;5023316;28;20340;-73
2023/06/05 01:28:48;;;;;;;10.85;6.75;;;;;;;17.59;65.22;96281.44;5030589;28;20520;-73
2023/06/05 01:31:19;;;;;;;9.48;6.30;;;;;;;17.52;65.24;96270.28;5028702;28;20045;-73
2023/06/05 01:33:52;;;;;;;7.53;5.82;;;;;;;17.47;65.25;96280.44;5030125;28;20584;-73
2023/06/05 01:36:19;;;;;;;11.02;6.70;;;;;;;17.43;65.91;96274.06;5029660;28;20120;-73
2023/06/05 01:38:49;;;;;;;17.70;6.72;;;;;;;17.47;65.61;96282.41;5029367;28;20049;-73
2023/06/05 01:41:16;;;;;;;9.85;6.38;;;;;;;17.39;65.80;96284.22;5028028;28;20041;-73
2023/06/05 01:43:46;;;;;;;10.50;6.78;;;;;;;17.31;65.90;96282.47;5028997;28;20056;-73
2023/06/05 01:46:13;;;;;;;10.13;6.18;;;;;;;17.37;65.75;96280.22;5017610;28;20056;-73
2023/06/05 01:48:42;;;;;;;11.77;6.35;;;;;;;17.24;66.39;96279.59;5031268;28;20056;-72
2023/06/05 01:51:09;;;;;;;10.63;5.97;;;;;;;17.28;66.56;96274.97;5031597;28;20488;-72
2023/06/05 01:53:36;;;;;;;8.40;6.13;;;;;;;17.40;66.21;96283.06;5028729;28;20068;-73
2023/06/05 01:56:06;;;;;;;8.75;6.22;;;;;;;17.36;66.39;96278.66;5029655;28;20064;-74
2023/06/05 01:58:33;;;;;;;10.82;6.15;;;;;;;17.41;66.51;96276.41;5025683;28;20075;-72
2023/06/05 02:01:00;;;;;;;10.32;6.28;;;;;;;17.40;66.07;96268.50;5029954;28;20041;-73
2023/06/05 02:03:26;;;;;;;9.60;5.90;;;;;;;17.40;66.06;96269.31;5028904;28;20038;-73
2023/06/05 02:05:54;;;;;;;12.73;6.80;;;;;;;17.47;66.02;96263.13;5029419;28;20038;-72
2023/06/05 02:08:22;;;;;;;9.35;5.95;;;;;;;17.38;66.58;96266.13;5030778;28;20038;-73
2023/06/05 02:10:49;;;;;;;7.13;5.47;;;;;;;17.47;66.25;96258.41;5032361;28;20045;-73
2023/06/05 02:13:18;;;;;;;9.48;6.32;;;;;;;17.41;66.21;96270.09;5027496;28;20503;-73
2023/06/05 02:15:45;;;;;;;9.55;6.38;;;;;;;17.21;66.67;96266.56;5028749;28;20060;-73
2023/06/05 02:18:12;;;;;;;11.23;6.32;;;;;;;17.34;66.87;96264.47;5030467;28;20072;-73
2023/06/05 02:20:41;;;;;;;10.60;6.40;;;;;;;17.27;66.98;96264.31;5029555;28;20556;-72
2023/06/05 02:23:08;;;;;;;8.93;6.18;;;;;;;17.33;66.87;96263.66;5030276;28;20040;-75
2023/06/05 02:25:35;;;;;;;7.25;5.70;;;;;;;17.38;66.81;96263.38;5025547;28;20123;-75
2023/06/05 02:28:01;;;;;;;9.32;5.95;;;;;;;17.41;67.13;96254.38;5031624;28;20137;-73
2023/06/05 02:30:30;;;;;;;13.85;6.22;;;;;;;17.25;67.45;96261.94;5031397;28;21596;-73
2023/06/05 02:33:00;;;;;;;8.77;6.13;;;;;;;17.27;67.17;96262.34;5029233;28;20038;-73
2023/06/05 02:35:27;;;;;;;10.65;6.50;;;;;;;17.28;67.32;96266.72;5029106;28;20088;-73
2023/06/05 02:37:53;;;;;;;8.88;5.95;;;;;;;17.24;67.54;96271.34;5029436;28;20048;-74
2023/06/05 02:40:20;;;;;;;9.07;5.97;;;;;;;17.31;67.75;96268.72;5029367;28;20053;-74
2023/06/05 02:42:46;;;;;;;14.98;6.63;;;;;;;17.35;67.72;96269.59;5029252;28;20498;-74
2023/06/05 02:45:13;;;;;;;7.50;5.55;;;;;;;17.38;67.07;96271.63;5032654;28;20419;-73
2023/06/05 02:47:41;;;;;;;9.43;6.30;;;;;;;17.36;67.39;96270.38;5028759;28;20079;-73
2023/06/05 02:50:08;;;;;;;6.78;5.70;;;;;;;17.35;67.52;96277.06;5030109;28;20049;-73
2023/06/05 02:52:35;;;;;;;6.95;5.45;;;;;;;17.35;67.41;96277.06;5028220;28;20060;-73
2023/06/05 02:55:02;;;;;;;7.20;5.75;;;;;;;17.30;67.96;96269.09;5030826;28;20068;-75
2023/06/05 02:57:28;;;;;;;7.93;6.05;;;;;;;17.31;68.67;96281.69;5028994;28;20544;-73
2023/06/05 02:59:55;;;;;;;8.20;5.57;;;;;;;17.33;68.91;96274.69;5034682;28;20064;-73
2023/06/05 03:02:22;;;;;;;9.45;6.35;;;;;;;17.31;68.97;96276.97;5028932;28;20057;-73
2023/06/05 03:04:53;;;;;;;8.05;5.88;;;;;;;17.28;68.92;96277.72;5028485;28;20136;-73
2023/06/05 03:07:20;;;;;;;8.15;6.00;;;;;;;17.25;68.88;96272.94;5028449;28;20513;-72
2023/06/05 03:09:46;;;;;;;10.32;6.72;;;;;;;17.17;69.62;96272.00;5028783;28;20045;-73
2023/06/05 03:12:12;;;;;;;8.77;6.53;;;;;;;17.18;70.06;96275.56;5027328;28;20559;-73
2023/06/05 03:14:39;;;;;;;10.43;7.20;;;;;;;17.20;70.32;96273.22;5023819;28;20049;-73
2023/06/05 03:17:05;;;;;;;10.52;7.10;;;;;;;17.18;70.08;96268.09;5027819;28;20041;-74
2023/06/05 03:19:32;;;;;;;10.77;7.32;;;;;;;17.18;70.41;96273.59;5021789;28;20041;-73
2023/06/05 03:22:00;;;;;;;8.13;6.70;;;;;;;17.18;70.45;96272.81;5028446;28;20487;-73
2023/06/05 03:24:27;;;;;;;13.85;8.50;;;;;;;17.16;70.67;96269.59;5026312;28;20041;-74
2023/06/05 03:26:54;;;;;;;7.68;6.88;;;;;;;17.13;70.49;96267.59;5026500;28;20103;-73
2023/06/05 03:29:20;;;;;;;10.00;6.60;;;;;;;17.12;70.68;96268.72;5027260;28;20052;-73
2023/06/05 03:31:47;;;;;;;10.95;7.72;;;;;;;17.09;70.98;96272.22;5027844;28;20058;-73
2023/06/05 03:34:13;;;;;;;9.85;6.63;;;;;;;17.09;71.13;96274.97;5026571;28;20082;-74
2023/06/05 03:36:40;;;;;;;8.88;6.85;;;;;;;17.11;70.96;96275.38;5030428;28;20103;-73
2023/06/05 03:39:08;;;;;;;11.32;7.40;;;;;;;17.06;71.11;96268.22;5027077;28;20115;-73
2023/06/05 03:41:35;;;;;;;13.35;8.40;;;;;;;16.95;71.42;96276.25;5027550;28;20041;-73
2023/06/05 03:44:03;;;;;;;11.95;7.05;;;;;;;17.04;71.06;96278.00;5026727;28;20080;-75
2023/06/05 03:46:30;;;;;;;10.23;6.88;;;;;;;17.00;71.21;96277.94;5028559;28;20485;-73
2023/06/05 03:48:58;;;;;;;9.25;7.03;;;;;;;16.93;70.71;96266.78;5028810;28;20045;-74
2023/06/05 03:51:29;;;;;;;11.15;7.43;;;;;;;16.95;70.56;96270.75;5029088;28;20493;-73
2023/06/05 03:53:57;;;;;;;9.18;7.32;;;;;;;16.87;70.43;96274.53;5027546;28;20107;-72
2023/06/05 03:56:28;;;;;;;11.85;7.30;;;;;;;16.99;71.27;96270.03;5028035;28;20040;-74
2023/06/05 03:58:55;;;;;;;10.40;7.13;;;;;;;17.01;71.16;96273.22;5028041;28;20057;-73
2023/06/05 04:01:21;;;;;;;11.50;7.65;;;;;;;17.00;71.21;96279.88;5028054;28;21564;-74
2023/06/05 04:03:48;;;;;;;10.07;7.15;;;;;;;17.03;71.10;96276.41;5028517;28;20052;-73
2023/06/05 04:06:14;;;;;;;9.48;6.85;;;;;;;17.04;71.29;96280.75;5027925;28;20710;-73
2023/06/05 04:08:41;;;;;;;11.27;7.85;;;;;;;17.06;71.64;96281.19;5028263;28;20056;-73
2023/06/05 04:11:07;;;;;;;10.52;6.75;;;;;;;17.06;71.59;96275.69;5027532;28;20464;-74
2023/06/05 04:13:35;;;;;;;9.90;7.05;;;;;;;17.05;71.35;96279.59;5030689;28;20046;-74
2023/06/05 04:16:02;;;;;;;10.23;7.07;;;;;;;17.05;71.55;96282.34;5027790;28;20068;-74
2023/06/05 04:18:28;;;;;;;10.23;7.55;;;;;;;17.01;71.26;96281.47;5027445;28;20041;-73
2023/06/05 04:20:56;;;;;;;9.75;6.97;;;;;;;17.01;71.38;96286.97;5027270;28;20046;-75
2023/06/05 04:23:23;;;;;;;9.70;7.32;;;;;;;16.99;71.68;96286.53;5026404;28;20049;-73
2023/06/05 04:25:49;;;;;;;10.18;7.32;;;;;;;17.00;72.07;96282.63;5026446;28;20660;-73
2023/06/05 04:28:16;;;;;;;12.85;7.55;;;;;;;16.99;72.21;96283.78;5026477;28;20049;-73
2023/06/05 04:30:45;;;;;;;11.32;6.68;;;;;;;16.97;72.41;96283.38;5026969;28;20041;-73
2023/06/05 04:33:12;;;;;;;9.93;7.53;;;;;;;16.94;72.23;96280.16;5028504;28;20536;-73
2023/06/05 04:35:38;;;;;;;12.35;7.28;;;;;;;16.95;72.01;96287.25;5027296;28;20038;-73
2023/06/05 04:38:05;;;;;;;9.93;7.28;;;;;;;16.94;72.36;96279.38;5028108;28;20053;-74
2023/06/05 04:40:32;;;;;;;10.98;8.25;;;;;;;16.93;72.27;96278.56;5031813;28;20053;-73
2023/06/05 04:42:58;;;;;;;9.48;7.45;;;;;;;16.92;72.98;96274.25;5028815;28;20046;-73
2023/06/05 04:45:25;;;;;;;10.70;7.72;;;;;;;16.89;72.75;96277.69;5030346;28;20046;-73
2023/06/05 04:47:53;;;;;;;12.90;7.95;;;;;;;16.87;72.93;96280.03;5031147;28;20046;-73
2023/06/05 04:50:25;;;;;;;9.73;7.20;;;;;;;16.88;73.47;96281.63;5032521;28;20046;-73
2023/06/05 04:52:53;;;;;;;13.95;7.97;;;;;;;16.85;73.56;96287.81;5030628;28;20052;-73
2023/06/05 04:55:20;;;;;;;10.00;7.50;;;;;;;16.82;73.01;96277.56;5030804;28;20049;-73
2023/06/05 04:57:48;;;;;;;10.18;7.30;;;;;;;16.83;72.69;96279.16;5033847;28;20046;-73
2023/06/05 05:00:15;;;;;;;14.88;7.78;;;;;;;16.85;72.46;96287.81;5028570;28;20497;-74
2023/06/05 05:02:41;;;;;;;11.95;7.25;;;;;;;16.79;72.27;96294.75;5030624;28;20045;-73
2023/06/05 05:05:13;;;;;;;12.32;7.90;;;;;;;16.79;72.44;96297.50;5030227;28;20070;-74
2023/06/05 05:07:41;;;;;;;11.13;7.40;;;;;;;16.80;72.08;96299.09;5031363;28;20596;-74
2023/06/05 05:10:09;;;;;;;11.02;7.88;;;;;;;16.82;71.79;96287.75;5028249;28;20050;-73
2023/06/05 05:12:36;;;;;;;14.10;8.70;;;;;;;16.72;71.41;96300.13;5031314;28;20118;-73
2023/06/05 05:15:03;;;;;;;9.90;6.78;;;;;;;16.78;71.49;96290.44;5029150;28;20042;-74
2023/06/05 05:17:30;;;;;;;9.38;7.05;;;;;;;16.83;71.51;96295.66;5031734;28;20041;-73
2023/06/05 05:19:57;;;;;;;15.65;7.45;;;;;;;16.87;71.17;96290.22;5031261;28;20060;-73
2023/06/05 05:22:24;;;;;;;15.18;7.82;;;;;;;16.88;71.85;96291.81;5029932;28;20037;-73
2023/06/05 05:24:51;;;;;;;9.60;7.00;;;;;;;16.93;71.63;96294.28;5032119;28;20052;-72
2023/06/05 05:27:17;;;;;;;10.82;6.47;;;;;;;16.97;71.23;96288.88;5029762;28;20042;-73
2023/06/05 05:29:44;;;;;;;12.60;7.75;;;;;;;16.94;71.36;96293.91;5030810;28;20457;-73
2023/06/05 05:32:10;;;;;;;10.93;6.45;;;;;;;17.00;71.59;96299.13;5030578;28;20041;-73
2023/06/05 05:34:37;;;;;;;13.10;7.22;;;;;;;17.00;71.25;96296.38;5031559;28;20054;-73
2023/06/05 05:37:04;;;;;;;9.18;7.20;;;;;;;17.00;70.69;96293.63;5030423;28;20045;-74
2023/06/05 05:39:32;;;;;;;9.13;5.95;;;;;;;17.01;71.05;96300.72;5034646;28;20045;-73
2023/06/05 05:41:59;;;;;;;9.25;6.47;;;;;;;17.04;71.66;96306.31;5031387;28;20042;-73
2023/06/05 05:44:26;;;;;;;7.45;5.85;;;;;;;17.00;71.37;96299.13;5031529;28;20049;-75
2023/06/05 05:46:52;;;;;;;9.05;6.22;;;;;;;17.00;70.84;96299.94;5026410;28;20049;-74
2023/06/05 05:49:19;;;;;;;9.48;6.75;;;;;;;16.98;70.66;96302.25;5028970;28;20049;-74
2023/06/05 05:51:45;;;;;;;11.77;7.20;;;;;;;17.05;71.47;96304.34;5037034;28;20052;-74
2023/06/05 05:54:12;;;;;;;13.85;6.63;;;;;;;17.04;71.94;96297.25;5031934;28;20041;-74
2023/06/05 05:56:39;;;;;;;9.48;6.88;;;;;;;17.00;70.44;96301.88;5040944;28;20056;-74
2023/06/05 05:59:06;;;;;;;12.25;6.70;;;;;;;17.07;70.81;96304.78;5036076;28;20045;-74
2023/06/05 06:01:33;;;;;;;10.60;6.65;;;;;;;17.10;72.00;96302.13;5032786;28;20053;-73
2023/06/05 06:03:59;;;;;;;7.85;6.25;;;;;;;17.14;71.94;96302.19;5037078;28;20079;-73
2023/06/05 06:06:26;;;;;;;13.27;6.30;;;;;;;17.17;71.70;96299.53;5036265;28;20051;-74
2023/06/05 06:08:52;;;;;;;10.07;6.65;;;;;;;17.23;71.57;96302.78;5037495;28;20045;-74
2023/06/05 06:11:18;;;;;;;11.02;6.90;;;;;;;17.25;71.22;96302.41;5038914;28;20042;-74
2023/06/05 06:13:47;;;;;;;13.45;6.85;;;;;;;17.21;70.72;96302.31;5037427;28;20053;-74
2023/06/05 06:16:14;;;;;;;11.30;6.75;;;;;;;17.35;70.81;96305.38;5049956;28;20071;-74
2023/06/05 06:18:41;;;;;;;11.55;6.70;;;;;;;17.32;69.47;96305.28;5049721;28;20049;-73
2023/06/05 06:21:08;;;;;;;9.80;6.28;;;;;;;17.45;69.89;96304.78;5035371;28;20724;-74
2023/06/05 06:23:34;;;;;;;14.40;7.07;;;;;;;17.31;68.87;96310.00;5034771;28;20069;-73
2023/06/05 06:26:01;;;;;;;8.57;6.22;;;;;;;17.46;68.70;96306.38;5035119;28;20135;-74
2023/06/05 06:28:27;;;;;;;9.88;6.78;;;;;;;17.59;68.71;96319.97;5032525;28;20053;-74
2023/06/05 06:30:55;;;;;;;10.07;6.75;;;;;;;17.57;69.13;96314.84;5037893;28;20041;-73
2023/06/05 06:33:22;;;;;;;28.00;8.52;;;;;;;17.46;67.68;96317.38;5035155;28;20057;-73
2023/06/05 06:35:49;;;;;;;11.13;7.13;;;;;;;17.63;68.55;96315.34;5031337;28;20136;-74
2023/06/05 06:38:16;;;;;;;11.82;7.13;;;;;;;17.76;67.66;96322.31;5030089;28;20041;-73
2023/06/05 06:40:43;;;;;;;12.20;7.00;;;;;;;17.85;67.81;96311.84;5029577;28;20045;-73
2023/06/05 06:43:09;;;;;;;11.82;7.10;;;;;;;17.87;66.54;96308.75;5028417;28;20045;-73
2023/06/05 06:45:36;;;;;;;10.00;7.43;;;;;;;17.85;65.60;96306.34;5029607;28;20041;-74
2023/06/05 06:48:04;;;;;;;10.85;6.78;;;;;;;17.73;65.45;96320.28;5029468;28;20041;-75
2023/06/05 06:50:30;;;;;;;9.05;7.10;;;;;;;17.53;65.74;96321.44;5028636;28;20048;-73
2023/06/05 06:52:57;;;;;;;11.07;7.20;;;;;;;17.62;66.70;96319.25;5029956;28;20072;-73
2023/06/05 06:55:23;;;;;;;15.60;7.05;;;;;;;17.72;66.78;96319.50;5030668;28;20046;-74
2023/06/05 06:57:50;;;;;;;10.23;6.45;;;;;;;17.88;66.51;96319.38;5031006;28;20489;-73
2023/06/05 07:00:17;;;;;;;9.73;6.55;;;;;;;17.88;65.13;96321.34;5029686;28;20041;-73
2023/06/05 07:02:44;;;;;;;14.07;6.85;;;;;;;17.85;64.56;96330.34;5028508;28;20071;-72
2023/06/05 07:05:11;;;;;;;11.70;7.07;;;;;;;17.93;65.45;96315.53;5027727;28;20076;-74
2023/06/05 07:07:38;;;;;;;12.48;9.23;;;;;;;17.83;65.03;96319.69;5028398;28;20164;-74
2023/06/05 07:10:05;;;;;;;9.88;7.32;;;;;;;17.80;65.96;96331.44;5026157;28;20068;-73
2023/06/05 07:12:32;;;;;;;10.77;6.72;;;;;;;17.94;65.77;96317.13;5027776;28;20056;-73
2023/06/05 07:14:58;;;;;;;13.45;6.70;;;;;;;18.12;65.25;96318.25;5028197;28;20140;-73
2023/06/05 07:17:27;;;;;;;11.38;6.45;;;;;;;18.13;66.54;96321.78;5027949;28;20515;-73
2023/06/05 07:19:53;;;;;;;11.45;6.72;;;;;;;18.12;64.60;96312.72;5030747;28;20064;-73
2023/06/05 07:22:21;;;;;;;8.15;6.70;;;;;;;17.98;64.63;96321.53;5030921;28;20045;-74
2023/06/05 07:24:48;;;;;;;11.00;6.78;;;;;;;18.06;64.80;96311.44;5028482;28;20046;-74
2023/06/05 07:27:15;;;;;;;11.80;5.82;;;;;;;18.26;65.24;96309.41;5029448;28;20041;-74
2023/06/05 07:29:42;;;;;;;8.13;5.65;;;;;;;18.43;65.82;96313.63;5028063;28;20050;-74
2023/06/05 07:32:08;;;;;;;9.63;6.05;;;;;;;18.59;65.61;96316.25;5026630;28;20072;-74
2023/06/05 07:34:35;;;;;;;9.05;5.68;;;;;;;18.83;65.01;96315.03;5028650;28;20568;-74
2023/06/05 07:37:01;;;;;;;10.13;5.68;;;;;;;19.04;64.20;96310.59;5027247;28;20088;-75
2023/06/05 07:39:29;;;;;;;12.07;6.20;;;;;;;19.11;62.46;96306.38;5029566;28;20044;-74
2023/06/05 07:41:56;;;;;;;11.27;6.03;;;;;;;19.21;61.67;96306.50;5029216;28;20512;-74
2023/06/05 07:44:23;;;;;;;11.95;6.40;;;;;;;19.37;63.01;96306.31;5027136;28;20045;-74
2023/06/05 07:46:50;;;;;;;8.75;6.30;;;;;;;19.26;61.17;96305.34;5030992;28;20757;-73
2023/06/05 07:49:17;;;;;;;8.10;5.70;;;;;;;19.43;61.11;96310.31;5025776;28;20136;-73
2023/06/05 07:51:46;;;;;;;8.93;5.75;;;;;;;19.59;61.44;96301.03;5025028;28;20048;-75
2023/06/05 07:54:15;;;;;;;8.80;5.85;;;;;;;19.48;60.05;96307.22;5026131;28;20045;-74
2023/06/05 07:56:44;;;;;;;9.05;5.88;;;;;;;19.64;61.01;96298.75;5024298;28;20049;-75
2023/06/05 07:59:14;;;;;;;12.57;5.70;;;;;;;19.77;59.21;96304.78;5028347;28;20049;-75
2023/06/05 08:01:40;;;;;;;9.00;5.60;;;;;;;19.95;59.88;96310.53;5029923;28;20049;-75
2023/06/05 08:04:10;;;;;;;10.23;6.15;;;;;;;19.99;58.88;96314.09;5029493;28;20045;-74
2023/06/05 08:06:37;;;;;;;11.38;5.70;;;;;;;20.08;59.10;96307.06;5029453;28;20053;-73
2023/06/05 08:09:04;;;;;;;11.82;5.65;;;;;;;19.98;58.30;96307.78;5027293;28;20409;-74
2023/06/05 08:11:31;;;;;;;9.05;6.18;;;;;;;20.01;57.63;96312.56;5030386;28;20049;-74
2023/06/05 08:13:59;;;;;;;7.55;5.05;;;;;;;20.04;57.88;96299.91;5023410;28;20049;-74
2023/06/05 08:16:25;;;;;;;7.68;5.68;;;;;;;20.01;57.57;96307.03;5027265;28;20053;-73
2023/06/05 08:18:51;;;;;;;9.25;5.20;;;;;;;20.12;57.31;96300.81;5028443;28;20049;-74
2023/06/05 08:21:18;;;;;;;9.50;5.75;;;;;;;20.21;57.63;96304.03;5023579;28;20037;-73
2023/06/05 08:23:44;;;;;;;8.00;5.28;;;;;;;20.33;57.59;96300.97;5028720;28;20425;-74
2023/06/05 08:26:11;;;;;;;7.97;5.75;;;;;;;20.33;56.98;96306.50;5027050;28;20052;-76
2023/06/05 08:28:39;;;;;;;10.48;5.75;;;;;;;20.45;58.07;96311.72;5027022;28;20132;-75
2023/06/05 08:31:07;;;;;;;11.20;6.35;;;;;;;20.46;57.77;96302.28;5026925;28;20107;-74
2023/06/05 08:33:34;;;;;;;7.03;5.18;;;;;;;20.76;58.26;96301.31;5029274;28;20041;-75
2023/06/05 08:36:01;;;;;;;9.25;5.35;;;;;;;20.80;55.19;96311.22;5027575;28;20489;-76
2023/06/05 08:38:27;;;;;;;9.63;6.22;;;;;;;20.69;57.53;96298.50;5027393;28;20436;-76
2023/06/05 08:41:00;;;;;;;13.77;5.50;;;;;;;20.51;57.38;96295.59;5031057;28;20523;-74
2023/06/05 08:43:27;;;;;;;;;;;;;;;20.52;56.39;96298.00;5027540;28;20068;-75
2023/06/05 08:45:56;;;;;;;7.57;5.47;;;;;;;20.49;57.00;96296.00;5030549;28;20364;-74
2023/06/05 08:48:25;;;;;;;12.52;6.10;;;;;;;20.46;57.17;96296.75;5025599;28;20057;-72
2023/06/05 08:50:54;;;;;;;9.02;5.75;;;;;;;20.36;57.45;96291.94;5028172;28;20046;-73
2023/06/05 08:53:23;;;;;;;10.88;5.95;;;;;;;20.63;58.03;96298.09;5026630;28;20042;-75
2023/06/05 08:55:55;;;;;;;8.43;5.80;;;;;;;20.87;57.87;96298.63;5021417;28;20838;-75
2023/06/05 08:58:22;;;;;;;6.88;5.03;;;;;;;21.04;57.87;96298.75;5027398;28;20080;-74
2023/06/05 09:00:50;;;;;;;8.30;5.32;;;;;;;20.99;55.14;96296.34;5026946;28;20259;-75
2023/06/05 09:03:18;;;;;;;12.25;6.05;;;;;;;21.00;56.04;96300.69;5028155;28;20046;-74
2023/06/05 09:05:46;;;;;;;13.15;4.95;;;;;;;21.25;57.89;96303.59;5026688;28;20123;-75
2023/06/05 09:08:13;;;;;;;9.25;5.25;;;;;;;21.18;54.45;96297.22;5027354;28;20049;-74
2023/06/05 09:10:39;;;;;;;6.28;5.20;;;;;;;21.21;55.33;96299.22;5027340;28;20045;-73
2023/06/05 09:13:06;;;;;;;9.38;5.68;;;;;;;21.10;54.63;96288.88;5024093;28;20072;-73
2023/06/05 09:15:34;;;;;;;8.25;4.97;;;;;;;21.28;55.14;96290.94;5027248;28;20056;-76
2023/06/05 09:18:09;;;;;;;8.55;5.07;;;;;;;21.00;54.90;96294.34;5027018;28;20041;-76
2023/06/05 09:20:37;;;;;;;9.10;5.53;;;;;;;21.07;54.45;96300.72;5026357;28;20041;-76
2023/06/05 09:23:21;;;;;;;6.22;4.93;;;;;;;21.24;55.42;96293.66;5027097;28;20046;-76
2023/06/05 09:25:50;;;;;;;6.95;5.10;;;;;;;21.31;54.90;96292.97;5027619;28;20112;-75
2023/06/05 09:28:17;;;;;;;9.85;5.35;;;;;;;21.07;53.65;96286.09;5029288;28;20485;-74
2023/06/05 09:30:57;;;;;;;9.13;5.70;;;;;;;20.89;54.71;96294.31;5030522;28;20084;-75
2023/06/05 09:33:25;;;;;;;15.40;5.45;;;;;;;21.10;54.71;96293.63;5027748;28;20119;-75
2023/06/05 09:36:13;;;;;;;8.27;4.47;;;;;;;21.47;56.63;96293.41;5029761;28;20045;-75
2023/06/05 09:38:42;;;;;;;10.38;5.28;;;;;;;21.52;53.52;96289.47;5023110;28;20240;-76
2023/06/05 09:41:09;;;;;;;7.22;4.82;;;;;;;;;;5029875;28;20049;-75
2023/06/05 09:43:37;;;;;;;7.15;4.70;;;;;;;21.89;53.20;96289.19;5032718;28;20124;-76
2023/06/05 09:46:07;;;;;;;7.40;4.78;;;;;;;21.84;51.23;96286.78;5030699;28;20108;-75
2023/06/05 09:48:35;;;;;;;12.10;5.18;;;;;;;21.97;52.49;96285.22;5031242;28;20057;-76
2023/06/05 09:51:10;;;;;;;7.78;4.90;;;;;;;22.02;52.65;96282.06;5030764;28;20061;-75
2023/06/05 09:53:42;;;;;;;6.22;4.60;;;;;;;22.32;52.63;96273.38;5029814;28;20053;-76
2023/06/05 09:56:12;;;;;;;6.85;4.60;;;;;;;22.47;50.42;96276.16;5030175;28;20079;-76
2023/06/05 09:58:38;;;;;;;9.90;4.35;;;;;;;22.57;52.41;96273.38;5028821;28;20048;-76
2023/06/05 10:01:09;;;;;;;7.57;4.80;;;;;;;22.33;50.87;96279.72;5035303;28;20044;-76
2023/06/05 10:03:37;;;;;;;8.13;4.78;;;;;;;22.28;51.55;96278.13;5018630;28;20111;-76
2023/06/05 10:06:07;;;;;;;7.78;4.80;;;;;;;22.44;51.30;96274.97;5030995;28;20037;-74
2023/06/05 10:08:34;;;;;;;6.03;4.47;;;;;;;22.61;51.35;96273.38;5030570;28;20052;-75
2023/06/05 10:11:04;;;;;;;8.30;5.03;;;;;;;22.28;51.50;96271.78;5017763;28;20053;-75
2023/06/05 10:13:31;;;;;;;8.80;4.80;;;;;;;22.48;50.51;96264.66;5028416;28;20046;-75
2023/06/05 10:16:00;;;;;;;6.30;4.65;;;;;;;22.51;51.91;96272.19;5029441;28;20132;-75
2023/06/05 10:18:27;;;;;;;7.80;4.60;;;;;;;22.66;52.70;96265.44;5029624;28;20048;-75
2023/06/05 10:20:55;;;;;;;7.85;4.07;;;;;;;22.64;49.80;96267.03;5030901;28;20394;-75
2023/06/05 10:23:22;;;;;;;6.47;4.30;;;;;;;22.96;50.46;96255.88;5029570;28;20415;-75
2023/06/05 10:25:49;;;;;;;6.20;4.47;;;;;;;22.74;50.91;96259.88;5026561;28;20508;-75
2023/06/05 10:28:37;;;;;;;5.43;4.30;;;;;;;22.43;49.64;96265.06;5024122;28;20077;-75
2023/06/05 10:31:28;;;;;;;6.85;3.70;;;;;;;22.93;49.61;96251.13;5019475;28;20044;-76
2023/06/05 10:34:24;;;;;;;8.70;4.03;;;;;;;23.21;50.14;96255.00;5026168;28;20044;-75
2023/06/05 10:37:32;;;;;;;5.13;3.40;;;;;;;23.27;49.00;96259.72;5024560;28;20096;-74
2023/06/05 10:39:58;;;;;;;8.65;4.43;;;;;;;22.82;50.40;96267.78;5033254;28;20046;-75
2023/06/05 10:42:26;;;;;;;9.35;4.40;;;;;;;22.79;48.55;96263.03;5029123;28;20401;-75
2023/06/05 10:44:54;;;;;;;5.35;4.20;;;;;;;22.58;50.85;96251.97;5031449;28;20053;-75
2023/06/05 10:47:51;;;;;;;5.93;4.00;;;;;;;22.58;50.17;96249.97;5030114;28;20041;-75
2023/06/05 10:50:26;;;;;;;5.32;3.83;;;;;;;22.73;50.95;96258.28;5025099;28;20053;-75
2023/06/05 10:52:54;;;;;;;6.80;4.13;;;;;;;22.78;49.80;96255.09;5037626;28;20053;-75
2023/06/05 10:55:22;;;;;;;5.40;4.07;;;;;;;22.82;50.58;96242.81;5025759;28;20041;-75
2023/06/05 10:58:10;;;;;;;7.97;4.03;;;;;;;22.96;48.82;96250.31;5021383;28;20077;-75
2023/06/05 11:00:39;;;;;;;5.90;3.90;;;;;;;23.24;50.75;96240.31;5033006;28;20091;-75
2023/06/05 11:03:09;;;;;;;8.40;4.18;;;;;;;23.30;50.38;96252.59;5029478;28;20041;-75
2023/06/05 11:05:36;;;;;;;6.88;4.20;;;;;;;23.23;51.20;96247.88;5032198;28;20049;-75
2023/06/05 11:08:17;;;;;;;7.07;4.03;;;;;;;22.90;50.01;96251.94;5033421;28;20082;-76
2023/06/05 11:11:03;;;;;;;9.65;4.00;;;;;;;22.51;51.47;96249.22;5025208;28;20045;-75
2023/06/05 11:13:54;;;;;;;5.60;4.00;;;;;;;21.95;52.27;96259.88;5028609;28;20109;-75
2023/06/05 11:16:29;;;;;;;6.25;3.67;;;;;;;22.13;52.52;96252.41;5032055;28;20055;-74
2023/06/05 11:19:34;;;;;;;6.97;4.05;;;;;;;22.02;52.94;96242.44;5026913;28;20049;-75
2023/06/05 11:22:07;;;;;;;14.73;4.22;;;;;;;22.02;54.54;96237.69;5026413;28;20088;-74
2023/06/05 11:24:35;;;;;;;10.73;4.43;;;;;;;21.81;52.93;96255.09;5027674;28;20047;-74
2023/06/05 11:27:03;;;;;;;5.47;3.53;;;;;;;22.00;53.34;96234.53;5027813;28;20053;-75
2023/06/05 11:29:30;;;;;;;5.65;3.75;;;;;;;21.75;54.13;96244.78;5028144;28;20167;-74
2023/06/05 11:31:58;;;;;;;5.82;3.95;;;;;;;21.78;55.18;96244.00;5029427;28;20083;-74
2023/06/05 11:34:25;;;;;;;5.57;4.00;;;;;;;21.87;54.90;96247.19;5027758;28;20120;-74
2023/06/05 11:36:52;;;;;;;5.35;4.03;;;;;;;22.13;55.49;96227.44;5027110;28;20072;-74
2023/06/05 11:39:21;;;;;;;6.10;3.80;;;;;;;22.08;54.78;96227.00;5026337;28;20045;-75